sensor_id;sensor_type;location;lat;lon;timestamp;P1;durP1;ratioP1;P2;durP2;ratioP2
10769;SDS011;5437;50.852;4.438;2022-09-03T00:01:43;2.40;;;1.70;;
10769;SDS011;5437;50.852;4.438;2022-09-03T00:06:46;1.90;;;1.80;;
10769;SDS011;5437;50.852;4.438;2022-09-03T00:09:27;1.88;;;1.73;;
10769;SDS011;5437;50.852;4.438;2022-09-03T00:12:25;2.67;;;1.73;;
10769;SDS011;5437;50.852;4.438;2022-09-03T00:23:43;2.10;;;1.90;;
10769;SDS011;5437;50.852;4.438;2022-09-03T00:34:55;3.85;;;2.15;;
10769;SDS011;5437;50.852;4.438;2022-09-03T00:37:45;2.70;;;2.30;;
10769;SDS011;5437;50.852;4.438;2022-09-03T00:40:41;2.65;;;2.45;;
10769;SDS011;5437;50.852;4.438;2022-09-03T00:43:23;3.72;;;2.33;;
10769;SDS011;5437;50.852;4.438;2022-09-03T00:46:20;2.47;;;2.00;;
10769;SDS011;5437;50.852;4.438;2022-09-03T00:57:35;2.58;;;2.40;;
10769;SDS011;5437;50.852;4.438;2022-09-03T01:00:08;2.88;;;2.53;;
10769;SDS011;5437;50.852;4.438;2022-09-03T01:05:52;2.72;;;2.40;;
10769;SDS011;5437;50.852;4.438;2022-09-03T01:08:34;2.55;;;2.35;;
10769;SDS011;5437;50.852;4.438;2022-09-03T01:14:11;2.65;;;2.20;;
10769;SDS011;5437;50.852;4.438;2022-09-03T01:25:10;2.25;;;2.10;;
10769;SDS011;5437;50.852;4.438;2022-09-03T01:30:24;2.95;;;2.20;;
10769;SDS011;5437;50.852;4.438;2022-09-03T01:33:12;4.05;;;2.40;;
10769;SDS011;5437;50.852;4.438;2022-09-03T01:41:22;2.30;;;2.10;;
10769;SDS011;5437;50.852;4.438;2022-09-03T01:46:41;3.58;;;1.92;;
10769;SDS011;5437;50.852;4.438;2022-09-03T01:49:33;5.57;;;2.13;;
10769;SDS011;5437;50.852;4.438;2022-09-03T01:52:45;2.15;;;1.88;;
10769;SDS011;5437;50.852;4.438;2022-09-03T01:57:41;2.40;;;2.20;;
10769;SDS011;5437;50.852;4.438;2022-09-03T02:00:21;2.22;;;2.13;;
10769;SDS011;5437;50.852;4.438;2022-09-03T02:02:50;3.08;;;2.20;;
10769;SDS011;5437;50.852;4.438;2022-09-03T02:05:19;2.45;;;2.25;;
10769;SDS011;5437;50.852;4.438;2022-09-03T02:07:57;4.38;;;2.13;;
10769;SDS011;5437;50.852;4.438;2022-09-03T02:10:31;2.45;;;2.22;;
10769;SDS011;5437;50.852;4.438;2022-09-03T02:13:10;3.22;;;2.40;;
10769;SDS011;5437;50.852;4.438;2022-09-03T02:15:40;2.80;;;2.15;;
10769;SDS011;5437;50.852;4.438;2022-09-03T02:18:10;3.75;;;2.38;;
10769;SDS011;5437;50.852;4.438;2022-09-03T02:20:41;2.75;;;2.55;;
10769;SDS011;5437;50.852;4.438;2022-09-03T02:23:09;2.45;;;2.20;;
10769;SDS011;5437;50.852;4.438;2022-09-03T02:25:41;2.65;;;2.45;;
10769;SDS011;5437;50.852;4.438;2022-09-03T02:28:20;2.60;;;2.40;;
10769;SDS011;5437;50.852;4.438;2022-09-03T02:31:07;2.75;;;2.38;;
10769;SDS011;5437;50.852;4.438;2022-09-03T02:33:41;2.90;;;2.70;;
10769;SDS011;5437;50.852;4.438;2022-09-03T02:36:10;2.92;;;2.70;;
10769;SDS011;5437;50.852;4.438;2022-09-03T02:38:37;2.78;;;2.55;;
10769;SDS011;5437;50.852;4.438;2022-09-03T02:41:05;3.03;;;2.72;;
10769;SDS011;5437;50.852;4.438;2022-09-03T02:43:41;2.78;;;2.58;;
10769;SDS011;5437;50.852;4.438;2022-09-03T02:46:17;3.13;;;2.60;;
10769;SDS011;5437;50.852;4.438;2022-09-03T02:48:50;2.70;;;2.50;;
10769;SDS011;5437;50.852;4.438;2022-09-03T02:51:23;2.80;;;2.60;;
10769;SDS011;5437;50.852;4.438;2022-09-03T02:53:57;3.38;;;3.03;;
10769;SDS011;5437;50.852;4.438;2022-09-03T02:56:25;2.83;;;2.63;;
10769;SDS011;5437;50.852;4.438;2022-09-03T02:58:55;3.13;;;2.92;;
10769;SDS011;5437;50.852;4.438;2022-09-03T03:01:24;2.70;;;2.50;;
10769;SDS011;5437;50.852;4.438;2022-09-03T03:03:53;3.17;;;2.97;;
10769;SDS011;5437;50.852;4.438;2022-09-03T03:06:24;5.13;;;3.13;;
10769;SDS011;5437;50.852;4.438;2022-09-03T03:08:50;3.38;;;2.67;;
10769;SDS011;5437;50.852;4.438;2022-09-03T03:11:20;3.25;;;3.05;;
10769;SDS011;5437;50.852;4.438;2022-09-03T03:13:47;3.72;;;2.90;;
10769;SDS011;5437;50.852;4.438;2022-09-03T03:16:14;5.35;;;3.20;;
10769;SDS011;5437;50.852;4.438;2022-09-03T03:18:43;3.40;;;3.10;;
10769;SDS011;5437;50.852;4.438;2022-09-03T03:21:11;3.33;;;3.08;;
10769;SDS011;5437;50.852;4.438;2022-09-03T03:23:42;3.20;;;2.90;;
10769;SDS011;5437;50.852;4.438;2022-09-03T03:26:26;3.10;;;2.90;;
10769;SDS011;5437;50.852;4.438;2022-09-03T03:29:28;4.47;;;3.70;;
10769;SDS011;5437;50.852;4.438;2022-09-03T03:31:57;3.47;;;3.17;;
10769;SDS011;5437;50.852;4.438;2022-09-03T03:34:23;3.42;;;3.00;;
10769;SDS011;5437;50.852;4.438;2022-09-03T03:36:52;4.72;;;3.03;;
10769;SDS011;5437;50.852;4.438;2022-09-03T03:39:25;3.90;;;2.97;;
10769;SDS011;5437;50.852;4.438;2022-09-03T03:41:52;3.55;;;3.10;;
10769;SDS011;5437;50.852;4.438;2022-09-03T03:44:20;3.13;;;2.92;;
10769;SDS011;5437;50.852;4.438;2022-09-03T03:46:46;3.53;;;3.17;;
10769;SDS011;5437;50.852;4.438;2022-09-03T03:49:14;3.67;;;3.00;;
10769;SDS011;5437;50.852;4.438;2022-09-03T03:51:47;3.50;;;3.20;;
10769;SDS011;5437;50.852;4.438;2022-09-03T03:54:14;3.80;;;3.35;;
10769;SDS011;5437;50.852;4.438;2022-09-03T03:56:49;3.90;;;3.50;;
10769;SDS011;5437;50.852;4.438;2022-09-03T03:59:17;3.55;;;3.28;;
10769;SDS011;5437;50.852;4.438;2022-09-03T04:01:44;3.92;;;3.45;;
10769;SDS011;5437;50.852;4.438;2022-09-03T04:04:10;4.00;;;3.60;;
10769;SDS011;5437;50.852;4.438;2022-09-03T04:06:37;4.35;;;3.58;;
10769;SDS011;5437;50.852;4.438;2022-09-03T04:09:03;3.40;;;3.10;;
10769;SDS011;5437;50.852;4.438;2022-09-03T04:11:29;3.47;;;3.05;;
10769;SDS011;5437;50.852;4.438;2022-09-03T04:13:57;3.67;;;3.38;;
10769;SDS011;5437;50.852;4.438;2022-09-03T04:16:26;3.10;;;2.67;;
10769;SDS011;5437;50.852;4.438;2022-09-03T04:18:53;3.42;;;3.15;;
10769;SDS011;5437;50.852;4.438;2022-09-03T04:21:23;3.20;;;2.85;;
10769;SDS011;5437;50.852;4.438;2022-09-03T04:24:04;3.78;;;3.08;;
10769;SDS011;5437;50.852;4.438;2022-09-03T04:26:31;3.50;;;3.05;;
10769;SDS011;5437;50.852;4.438;2022-09-03T04:29:04;3.25;;;3.05;;
10769;SDS011;5437;50.852;4.438;2022-09-03T04:34:38;3.42;;;3.15;;
10769;SDS011;5437;50.852;4.438;2022-09-03T04:37:04;3.38;;;3.17;;
10769;SDS011;5437;50.852;4.438;2022-09-03T04:39:44;3.60;;;3.30;;
10769;SDS011;5437;50.852;4.438;2022-09-03T04:42:10;3.85;;;3.55;;
10769;SDS011;5437;50.852;4.438;2022-09-03T04:44:37;3.70;;;3.40;;
10769;SDS011;5437;50.852;4.438;2022-09-03T04:47:05;4.00;;;3.65;;
10769;SDS011;5437;50.852;4.438;2022-09-03T04:49:34;3.47;;;3.28;;
10769;SDS011;5437;50.852;4.438;2022-09-03T04:52:02;5.68;;;3.90;;
10769;SDS011;5437;50.852;4.438;2022-09-03T04:54:39;3.50;;;3.30;;
10769;SDS011;5437;50.852;4.438;2022-09-03T04:57:07;4.00;;;3.70;;
10769;SDS011;5437;50.852;4.438;2022-09-03T04:59:34;3.72;;;3.40;;
10769;SDS011;5437;50.852;4.438;2022-09-03T05:02:11;4.07;;;3.67;;
10769;SDS011;5437;50.852;4.438;2022-09-03T05:04:40;5.10;;;4.00;;
10769;SDS011;5437;50.852;4.438;2022-09-03T05:07:08;3.90;;;3.60;;
10769;SDS011;5437;50.852;4.438;2022-09-03T05:09:35;3.85;;;3.63;;
10769;SDS011;5437;50.852;4.438;2022-09-03T05:12:04;4.60;;;4.20;;
10769;SDS011;5437;50.852;4.438;2022-09-03T05:17:47;4.25;;;3.95;;
10769;SDS011;5437;50.852;4.438;2022-09-03T05:20:17;4.75;;;4.35;;
10769;SDS011;5437;50.852;4.438;2022-09-03T05:22:43;4.97;;;4.45;;
10769;SDS011;5437;50.852;4.438;2022-09-03T05:25:09;4.43;;;4.03;;
10769;SDS011;5437;50.852;4.438;2022-09-03T05:27:36;4.70;;;4.30;;
10769;SDS011;5437;50.852;4.438;2022-09-03T05:30:02;4.50;;;4.10;;
10769;SDS011;5437;50.852;4.438;2022-09-03T05:32:31;4.63;;;4.22;;
10769;SDS011;5437;50.852;4.438;2022-09-03T05:35:00;4.97;;;4.57;;
10769;SDS011;5437;50.852;4.438;2022-09-03T05:37:26;4.53;;;4.20;;
10769;SDS011;5437;50.852;4.438;2022-09-03T05:39:55;4.40;;;4.10;;
10769;SDS011;5437;50.852;4.438;2022-09-03T05:42:21;4.53;;;4.13;;
10769;SDS011;5437;50.852;4.438;2022-09-03T05:44:47;4.38;;;3.97;;
10769;SDS011;5437;50.852;4.438;2022-09-03T05:47:14;4.40;;;4.10;;
10769;SDS011;5437;50.852;4.438;2022-09-03T05:49:42;5.05;;;4.40;;
10769;SDS011;5437;50.852;4.438;2022-09-03T05:52:12;5.45;;;4.45;;
10769;SDS011;5437;50.852;4.438;2022-09-03T05:54:43;4.50;;;4.10;;
10769;SDS011;5437;50.852;4.438;2022-09-03T05:57:22;4.28;;;3.97;;
10769;SDS011;5437;50.852;4.438;2022-09-03T05:59:49;4.60;;;4.20;;
10769;SDS011;5437;50.852;4.438;2022-09-03T06:02:15;4.50;;;4.13;;
10769;SDS011;5437;50.852;4.438;2022-09-03T06:04:43;4.40;;;4.07;;
10769;SDS011;5437;50.852;4.438;2022-09-03T06:07:11;4.72;;;4.20;;
10769;SDS011;5437;50.852;4.438;2022-09-03T06:09:45;4.90;;;4.40;;
10769;SDS011;5437;50.852;4.438;2022-09-03T06:12:17;5.10;;;4.60;;
10769;SDS011;5437;50.852;4.438;2022-09-03T06:14:43;4.70;;;4.30;;
10769;SDS011;5437;50.852;4.438;2022-09-03T06:17:16;4.80;;;4.40;;
10769;SDS011;5437;50.852;4.438;2022-09-03T06:19:48;4.50;;;4.10;;
10769;SDS011;5437;50.852;4.438;2022-09-03T06:22:16;4.90;;;4.47;;
10769;SDS011;5437;50.852;4.438;2022-09-03T06:25:05;4.80;;;4.40;;
10769;SDS011;5437;50.852;4.438;2022-09-03T06:27:35;4.57;;;4.03;;
10769;SDS011;5437;50.852;4.438;2022-09-03T06:30:01;4.03;;;3.72;;
10769;SDS011;5437;50.852;4.438;2022-09-03T06:32:32;4.22;;;3.83;;
10769;SDS011;5437;50.852;4.438;2022-09-03T06:35:03;4.72;;;4.40;;
10769;SDS011;5437;50.852;4.438;2022-09-03T06:37:57;4.07;;;3.78;;
10769;SDS011;5437;50.852;4.438;2022-09-03T06:40:55;4.35;;;3.95;;
10769;SDS011;5437;50.852;4.438;2022-09-03T06:43:21;4.10;;;3.80;;
10769;SDS011;5437;50.852;4.438;2022-09-03T06:46:03;4.78;;;4.10;;
10769;SDS011;5437;50.852;4.438;2022-09-03T06:48:36;4.40;;;4.05;;
10769;SDS011;5437;50.852;4.438;2022-09-03T06:51:11;4.30;;;4.00;;
10769;SDS011;5437;50.852;4.438;2022-09-03T06:53:50;3.70;;;3.40;;
10769;SDS011;5437;50.852;4.438;2022-09-03T07:02:55;4.05;;;3.75;;
10769;SDS011;5437;50.852;4.438;2022-09-03T07:05:29;4.10;;;3.80;;
10769;SDS011;5437;50.852;4.438;2022-09-03T07:08:23;4.03;;;3.72;;
10769;SDS011;5437;50.852;4.438;2022-09-03T07:11:24;3.72;;;3.42;;
10769;SDS011;5437;50.852;4.438;2022-09-03T07:14:09;3.97;;;3.63;;
10769;SDS011;5437;50.852;4.438;2022-09-03T07:37:58;3.60;;;3.30;;
10769;SDS011;5437;50.852;4.438;2022-09-03T08:02:59;3.35;;;3.15;;
10769;SDS011;5437;50.852;4.438;2022-09-03T08:31:23;3.30;;;3.00;;
10769;SDS011;5437;50.852;4.438;2022-09-03T08:40:37;5.03;;;3.25;;
10769;SDS011;5437;50.852;4.438;2022-09-03T08:43:35;4.05;;;3.63;;
10769;SDS011;5437;50.852;4.438;2022-09-03T08:55:57;4.78;;;4.00;;
10769;SDS011;5437;50.852;4.438;2022-09-03T09:01:22;4.10;;;3.53;;
10769;SDS011;5437;50.852;4.438;2022-09-03T09:05:37;6.00;;;3.83;;
10769;SDS011;5437;50.852;4.438;2022-09-03T09:10:08;4.05;;;3.70;;
10769;SDS011;5437;50.852;4.438;2022-09-03T10:30:08;5.40;;;4.70;;
10769;SDS011;5437;50.852;4.438;2022-09-03T10:39:24;5.78;;;4.57;;
10769;SDS011;5437;50.852;4.438;2022-09-03T11:00:09;6.95;;;5.45;;
10769;SDS011;5437;50.852;4.438;2022-09-03T11:06:01;5.13;;;4.57;;
10769;SDS011;5437;50.852;4.438;2022-09-03T11:15:15;5.53;;;4.70;;
10769;SDS011;5437;50.852;4.438;2022-09-03T11:20:37;4.78;;;4.28;;
10769;SDS011;5437;50.852;4.438;2022-09-03T11:32:57;4.95;;;4.45;;
10769;SDS011;5437;50.852;4.438;2022-09-03T11:38:35;5.55;;;4.30;;
10769;SDS011;5437;50.852;4.438;2022-09-03T12:18:35;4.65;;;3.63;;
10769;SDS011;5437;50.852;4.438;2022-09-03T12:27:31;4.10;;;3.70;;
10769;SDS011;5437;50.852;4.438;2022-09-03T12:33:56;3.75;;;3.38;;
10769;SDS011;5437;50.852;4.438;2022-09-03T12:40:00;4.80;;;4.30;;
10769;SDS011;5437;50.852;4.438;2022-09-03T12:45:52;4.05;;;3.65;;
10769;SDS011;5437;50.852;4.438;2022-09-03T12:51:20;3.80;;;3.50;;
10769;SDS011;5437;50.852;4.438;2022-09-03T13:00:09;3.58;;;3.08;;
10769;SDS011;5437;50.852;4.438;2022-09-03T13:03:05;3.80;;;3.40;;
10769;SDS011;5437;50.852;4.438;2022-09-03T13:06:14;3.45;;;3.17;;
10769;SDS011;5437;50.852;4.438;2022-09-03T13:46:05;3.45;;;3.20;;
10769;SDS011;5437;50.852;4.438;2022-09-03T13:48:42;3.33;;;3.13;;
10769;SDS011;5437;50.852;4.438;2022-09-03T13:51:48;2.72;;;2.53;;
10769;SDS011;5437;50.852;4.438;2022-09-03T14:04:01;2.75;;;2.55;;
10769;SDS011;5437;50.852;4.438;2022-09-03T14:28:37;3.20;;;2.90;;
10769;SDS011;5437;50.852;4.438;2022-09-03T18:50:20;2.90;;;2.60;;
10769;SDS011;5437;50.852;4.438;2022-09-03T19:58:29;2.58;;;2.38;;
10769;SDS011;5437;50.852;4.438;2022-09-03T20:01:57;2.72;;;2.40;;
10769;SDS011;5437;50.852;4.438;2022-09-03T20:04:28;2.50;;;2.30;;
10769;SDS011;5437;50.852;4.438;2022-09-03T20:07:30;2.60;;;2.40;;
10769;SDS011;5437;50.852;4.438;2022-09-03T21:07:39;4.25;;;2.65;;
10769;SDS011;5437;50.852;4.438;2022-09-03T21:28:41;2.80;;;2.60;;
10769;SDS011;5437;50.852;4.438;2022-09-03T21:34:22;2.90;;;2.70;;
10769;SDS011;5437;50.852;4.438;2022-09-03T21:37:00;3.83;;;2.83;;
10769;SDS011;5437;50.852;4.438;2022-09-03T21:39:34;2.75;;;2.55;;
10769;SDS011;5437;50.852;4.438;2022-09-03T21:47:50;2.75;;;2.50;;
10769;SDS011;5437;50.852;4.438;2022-09-03T21:50:27;3.17;;;2.97;;
10769;SDS011;5437;50.852;4.438;2022-09-03T21:56:37;2.63;;;2.42;;
10769;SDS011;5437;50.852;4.438;2022-09-03T22:15:08;4.10;;;2.88;;
10769;SDS011;5437;50.852;4.438;2022-09-03T22:35:47;3.40;;;3.17;;
10769;SDS011;5437;50.852;4.438;2022-09-03T22:57:14;3.08;;;2.88;;
10769;SDS011;5437;50.852;4.438;2022-09-03T23:19:00;2.90;;;2.70;;
10769;SDS011;5437;50.852;4.438;2022-09-03T23:56:47;3.40;;;3.00;;
